createdAt,value
2018-09-20T00:01:15.268Z,6.50
2018-09-20T00:03:43.602Z,7.43
2018-09-20T00:06:11.908Z,7.37
2018-09-20T00:08:40.120Z,6.53
2018-09-20T00:11:08.637Z,6.62
2018-09-20T00:13:36.776Z,7.60
2018-09-20T00:16:05.097Z,7.70
2018-09-20T00:18:33.515Z,6.90
2018-09-20T00:21:02.024Z,6.50
2018-09-20T00:23:30.975Z,5.95
2018-09-20T00:25:59.423Z,6.75
2018-09-20T00:28:27.837Z,6.67
2018-09-20T00:30:56.125Z,7.45
2018-09-20T00:33:24.520Z,5.60
2018-09-20T00:35:52.918Z,7.80
2018-09-20T00:38:21.416Z,6.15
2018-09-20T00:40:50.140Z,5.78
2018-09-20T00:43:18.440Z,6.80
2018-09-20T00:45:46.634Z,7.28
2018-09-20T00:48:14.962Z,7.62
2018-09-20T00:50:43.528Z,6.80
2018-09-20T00:53:12.446Z,6.50
2018-09-20T00:55:40.854Z,6.10
2018-09-20T00:58:09.339Z,6.20
2018-09-20T01:00:37.780Z,6.47
2018-09-20T01:03:06.183Z,6.10
2018-09-20T01:05:34.535Z,6.30
2018-09-20T01:08:03.052Z,6.40
2018-09-20T01:10:31.405Z,6.40
2018-09-20T01:12:59.835Z,6.40
2018-09-20T01:15:28.261Z,7.87
2018-09-20T01:17:56.621Z,6.50
2018-09-20T01:20:24.830Z,6.87
2018-09-20T01:22:53.013Z,5.90
2018-09-20T01:25:21.403Z,6.10
2018-09-20T01:27:50.151Z,6.90
2018-09-20T01:30:18.557Z,6.60
2018-09-20T01:32:46.947Z,6.50
2018-09-20T01:35:15.353Z,7.22
2018-09-20T01:37:43.744Z,6.58
2018-09-20T01:40:12.321Z,6.63
2018-09-20T01:42:40.740Z,6.87
2018-09-20T01:45:09.748Z,6.20
2018-09-20T01:47:38.160Z,6.30
2018-09-20T01:50:06.660Z,6.47
2018-09-20T01:52:35.061Z,6.37
2018-09-20T01:55:03.460Z,5.80
2018-09-20T01:57:31.516Z,6.40
2018-09-20T01:59:59.853Z,6.55
2018-09-20T02:02:28.051Z,6.30
2018-09-20T02:04:56.540Z,6.92
2018-09-20T02:07:25.167Z,6.08
2018-09-20T02:09:53.672Z,6.60
2018-09-20T02:12:22.040Z,6.50
2018-09-20T02:14:50.438Z,7.10
2018-09-20T02:17:18.855Z,5.87
2018-09-20T02:19:47.260Z,6.53
2018-09-20T02:22:15.566Z,6.87
2018-09-20T02:24:44.553Z,8.48
2018-09-20T02:27:13.041Z,6.85
2018-09-20T02:29:41.366Z,6.47
2018-09-20T02:32:09.617Z,6.92
2018-09-20T02:34:37.705Z,6.70
2018-09-20T02:37:06.255Z,6.20
2018-09-20T02:39:34.566Z,6.40
2018-09-20T02:42:03.063Z,7.30
2018-09-20T02:44:31.335Z,6.27
2018-09-20T02:46:59.727Z,6.45
2018-09-20T02:49:28.160Z,7.10
2018-09-20T02:51:56.652Z,6.72
2018-09-20T02:54:24.956Z,6.65
2018-09-20T02:56:53.364Z,6.60
2018-09-20T02:59:21.832Z,7.25
2018-09-20T03:01:50.353Z,7.40
2018-09-20T03:04:18.644Z,6.50
2018-09-20T03:06:46.923Z,6.80
2018-09-20T03:09:15.316Z,6.50
2018-09-20T03:11:43.417Z,7.07
2018-09-20T03:14:12.056Z,7.00
2018-09-20T03:16:40.438Z,7.45
2018-09-20T03:19:08.926Z,7.00
2018-09-20T03:21:37.340Z,7.30
2018-09-20T03:24:05.659Z,6.50
2018-09-20T03:26:34.719Z,7.90
2018-09-20T03:29:03.155Z,7.58
2018-09-20T03:31:31.442Z,7.12
2018-09-20T03:33:59.752Z,7.40
2018-09-20T03:36:28.150Z,7.58
2018-09-20T03:38:56.546Z,8.40
2018-09-20T03:41:24.950Z,8.65
2018-09-20T03:43:53.316Z,7.77
2018-09-20T03:46:21.572Z,7.20
2018-09-20T03:48:49.925Z,7.97
2018-09-20T03:51:18.331Z,7.35
2018-09-20T03:53:46.775Z,8.20
2018-09-20T03:56:15.127Z,8.00
2018-09-20T03:58:43.549Z,8.00
2018-09-20T04:01:11.843Z,7.75
2018-09-20T04:03:40.350Z,7.83
2018-09-20T04:06:08.847Z,8.00
2018-09-20T04:08:37.248Z,7.17
2018-09-20T04:11:05.649Z,8.27
2018-09-20T04:13:34.253Z,7.50
2018-09-20T04:16:02.646Z,7.70
2018-09-20T04:18:30.961Z,8.50
2018-09-20T04:20:59.252Z,7.40
2018-09-20T04:23:27.412Z,7.87
2018-09-20T04:25:55.648Z,8.00
2018-09-20T04:28:24.004Z,8.70
2018-09-20T04:30:52.392Z,8.18
2018-09-20T04:33:27.404Z,7.85
2018-09-20T04:35:55.870Z,7.78
2018-09-20T04:38:24.162Z,8.10
2018-09-20T04:40:52.564Z,7.47
2018-09-20T04:43:21.085Z,8.20
2018-09-20T04:45:49.492Z,7.85
2018-09-20T04:48:17.771Z,8.10
2018-09-20T04:50:45.973Z,8.13
2018-09-20T04:53:14.412Z,7.30
2018-09-20T04:55:42.619Z,8.10
2018-09-20T04:58:10.972Z,10.00
2018-09-20T05:00:39.344Z,9.85
2018-09-20T05:03:07.533Z,9.20
2018-09-20T05:05:35.863Z,9.30
2018-09-20T05:08:04.170Z,8.08
2018-09-20T05:10:32.497Z,9.50
2018-09-20T05:13:00.845Z,9.63
2018-09-20T05:15:29.331Z,10.08
2018-09-20T05:17:57.558Z,13.38
2018-09-20T05:20:25.951Z,7.85
2018-09-20T05:22:55.012Z,8.98
2018-09-20T05:25:23.452Z,10.20
2018-09-20T05:27:51.630Z,10.00
2018-09-20T05:30:19.743Z,10.72
2018-09-20T05:32:48.136Z,10.30
2018-09-20T05:35:16.624Z,9.30
2018-09-20T05:37:45.014Z,8.57
2018-09-20T05:40:13.765Z,9.28
2018-09-20T05:42:42.018Z,9.13
2018-09-20T05:45:10.473Z,10.70
2018-09-20T05:47:38.781Z,8.70
2018-09-20T05:50:07.252Z,9.28
2018-09-20T05:52:35.762Z,10.70
2018-09-20T05:55:04.019Z,8.63
2018-09-20T05:57:32.471Z,13.10
2018-09-20T06:00:00.827Z,8.50
2018-09-20T06:02:29.258Z,9.20
2018-09-20T06:04:57.451Z,11.80
2018-09-20T06:07:25.631Z,10.00
2018-09-20T06:09:57.914Z,9.80
2018-09-20T06:12:26.314Z,10.78
2018-09-20T06:14:54.862Z,11.12
2018-09-20T06:17:23.528Z,17.05
2018-09-20T06:19:52.398Z,12.60
2018-09-20T06:22:20.730Z,9.90
2018-09-20T06:24:49.114Z,11.05
2018-09-20T06:27:17.650Z,10.38
2018-09-20T06:29:46.031Z,8.88
2018-09-20T06:32:14.554Z,8.28
2018-09-20T06:34:42.657Z,7.53
2018-09-20T06:37:10.734Z,7.70
2018-09-20T06:39:39.214Z,7.47
2018-09-20T06:42:07.620Z,7.28
2018-09-20T06:44:35.922Z,8.48
2018-09-20T06:47:04.411Z,7.78
2018-09-20T06:49:32.723Z,7.10
2018-09-20T06:52:01.044Z,8.55
2018-09-20T06:54:29.511Z,8.43
2018-09-20T06:56:57.827Z,8.10
2018-09-20T06:59:26.125Z,8.50
2018-09-20T07:01:54.621Z,7.50
2018-09-20T07:04:22.913Z,6.50
2018-09-20T07:06:51.301Z,6.35
2018-09-20T07:09:19.832Z,7.10
2018-09-20T07:11:48.129Z,5.43
2018-09-20T07:14:16.506Z,6.30
2018-09-20T07:16:45.039Z,6.30
2018-09-20T07:19:13.543Z,6.70
2018-09-20T07:21:41.932Z,6.50
2018-09-20T07:24:10.949Z,6.15
2018-09-20T07:26:39.230Z,6.57
2018-09-20T07:29:07.536Z,5.90
2018-09-20T07:31:35.944Z,6.78
2018-09-20T07:34:04.431Z,6.08
2018-09-20T07:36:32.726Z,6.70
2018-09-20T07:39:00.899Z,6.50
2018-09-20T07:41:29.612Z,6.22
2018-09-20T07:43:57.929Z,6.10
2018-09-20T07:46:26.329Z,5.90
2018-09-20T07:48:54.537Z,5.30
2018-09-20T07:51:22.835Z,5.08
2018-09-20T07:53:51.238Z,5.12
2018-09-20T07:56:19.560Z,4.65
2018-09-20T07:58:47.914Z,4.90
2018-09-20T08:01:16.303Z,5.62
2018-09-20T08:03:44.824Z,8.20
2018-09-20T08:06:13.224Z,5.00
2018-09-20T08:08:41.521Z,5.20
2018-09-20T08:11:10.152Z,6.65
2018-09-20T08:13:39.246Z,5.40
2018-09-20T08:16:07.411Z,5.60
2018-09-20T08:18:35.356Z,4.70
2018-09-20T08:21:03.308Z,4.90
2018-09-20T08:23:31.234Z,4.83
2018-09-20T08:25:59.212Z,5.50
2018-09-20T08:28:27.189Z,4.60
2018-09-20T08:30:55.202Z,5.15
2018-09-20T08:33:23.261Z,5.20
2018-09-20T08:35:51.187Z,4.80
2018-09-20T08:38:19.147Z,5.55
2018-09-20T08:40:47.160Z,5.30
2018-09-20T08:43:15.163Z,4.75
2018-09-20T08:45:43.077Z,4.80
2018-09-20T08:48:11.006Z,5.40
2018-09-20T08:50:39.043Z,6.00
2018-09-20T08:53:06.996Z,5.60
2018-09-20T08:55:35.506Z,25.47
2018-09-20T08:58:03.881Z,6.25
2018-09-20T09:00:32.168Z,5.40
2018-09-20T09:03:00.806Z,5.70
2018-09-20T09:05:29.202Z,5.40
2018-09-20T09:07:57.149Z,5.53
2018-09-20T09:10:25.102Z,5.37
2018-09-20T09:12:53.115Z,5.40
2018-09-20T09:15:21.076Z,5.20
2018-09-20T09:17:49.062Z,6.70
2018-09-20T09:20:16.993Z,7.47
2018-09-20T09:22:44.949Z,6.30
2018-09-20T09:25:12.911Z,5.50
2018-09-20T09:27:40.995Z,5.72
2018-09-20T09:30:09.395Z,5.60
2018-09-20T09:32:37.789Z,4.90
2018-09-20T09:35:06.293Z,5.60
2018-09-20T09:37:34.698Z,5.10
2018-09-20T09:40:03.189Z,6.45
2018-09-20T09:42:31.685Z,5.03
2018-09-20T09:45:00.113Z,5.47
2018-09-20T09:47:28.614Z,5.10
2018-09-20T09:49:57.120Z,5.33
2018-09-20T09:52:25.584Z,5.67
2018-09-20T09:54:53.836Z,5.25
2018-09-20T09:57:21.902Z,4.70
2018-09-20T09:59:50.309Z,5.85
2018-09-20T10:02:18.808Z,5.60
2018-09-20T10:04:47.091Z,5.40
2018-09-20T10:07:15.509Z,5.40
2018-09-20T10:09:43.785Z,5.30
2018-09-20T10:12:12.311Z,6.15
2018-09-20T10:14:40.807Z,5.40
2018-09-20T10:17:09.300Z,5.67
2018-09-20T10:19:37.715Z,5.50
2018-09-20T10:22:06.316Z,5.70
2018-09-20T10:24:34.608Z,5.27
2018-09-20T10:27:03.113Z,5.42
2018-09-20T10:29:31.501Z,5.60
2018-09-20T10:31:59.949Z,5.17
2018-09-20T10:34:28.190Z,5.28
2018-09-20T10:36:56.609Z,5.72
2018-09-20T10:39:24.987Z,5.92
2018-09-20T10:41:53.513Z,5.35
2018-09-20T10:44:21.910Z,5.20
2018-09-20T10:46:50.299Z,5.62
2018-09-20T10:49:18.591Z,5.50
2018-09-20T10:51:46.913Z,5.40
2018-09-20T10:54:15.282Z,5.78
2018-09-20T10:56:43.667Z,5.80
2018-09-20T10:59:15.481Z,5.83
2018-09-20T11:01:43.948Z,5.30
2018-09-20T11:04:12.235Z,5.70
2018-09-20T11:06:40.576Z,5.70
2018-09-20T11:09:09.174Z,5.60
2018-09-20T11:11:37.666Z,6.20
2018-09-20T11:14:06.065Z,5.47
2018-09-20T11:16:34.596Z,5.75
2018-09-20T11:19:03.088Z,5.30
2018-09-20T11:21:31.566Z,5.58
2018-09-20T11:24:00.080Z,5.37
2018-09-20T11:26:28.588Z,5.60
2018-09-20T11:28:56.969Z,6.00
2018-09-20T11:31:25.505Z,6.00
2018-09-20T11:33:53.999Z,5.90
2018-09-20T11:36:22.400Z,6.42
2018-09-20T11:38:50.708Z,5.72
2018-09-20T11:41:18.865Z,6.87
2018-09-20T11:43:46.949Z,5.87
2018-09-20T11:46:15.469Z,5.90
2018-09-20T11:48:43.870Z,5.90
2018-09-20T11:51:12.283Z,5.50
2018-09-20T11:53:40.694Z,5.17
2018-09-20T11:56:08.944Z,8.10
2018-09-20T11:58:38.338Z,6.22
2018-09-20T12:01:06.790Z,5.80
2018-09-20T12:03:35.070Z,5.78
2018-09-20T12:06:03.613Z,6.33
2018-09-20T12:08:32.000Z,6.15
2018-09-20T12:11:00.593Z,6.13
2018-09-20T12:13:28.993Z,5.65
2018-09-20T12:15:57.350Z,6.77
2018-09-20T12:18:25.585Z,5.75
2018-09-20T12:20:54.070Z,5.28
2018-09-20T12:23:22.487Z,5.90
2018-09-20T12:25:50.925Z,5.80
2018-09-20T12:28:19.383Z,5.83
2018-09-20T12:30:47.907Z,6.97
2018-09-20T12:33:16.387Z,6.10
2018-09-20T12:35:45.092Z,7.80
2018-09-20T12:38:13.544Z,5.75
2018-09-20T12:40:41.890Z,5.53
2018-09-20T12:43:10.451Z,5.80
2018-09-20T12:45:38.897Z,5.78
2018-09-20T12:48:07.644Z,6.20
2018-09-20T12:50:35.877Z,5.75
2018-09-20T12:53:04.216Z,6.72
2018-09-20T12:55:32.618Z,5.10
2018-09-20T12:58:00.900Z,6.47
2018-09-20T13:00:29.520Z,5.72
2018-09-20T13:02:57.922Z,5.53
2018-09-20T13:05:26.298Z,5.65
2018-09-20T13:07:55.437Z,6.12
2018-09-20T13:10:23.831Z,5.50
2018-09-20T13:12:52.340Z,6.72
2018-09-20T13:15:20.821Z,5.75
2018-09-20T13:17:49.419Z,5.95
2018-09-20T13:20:18.016Z,5.80
2018-09-20T13:22:46.319Z,6.03
2018-09-20T13:25:14.766Z,5.42
2018-09-20T13:27:43.225Z,6.20
2018-09-20T13:30:11.527Z,6.07
2018-09-20T13:32:40.130Z,5.90
2018-09-20T13:35:08.634Z,6.12
2018-09-20T13:37:37.161Z,5.55
2018-09-20T13:40:05.545Z,6.20
2018-09-20T13:42:34.889Z,5.60
2018-09-20T13:45:03.472Z,6.00
2018-09-20T13:47:31.970Z,5.85
2018-09-20T13:50:00.593Z,5.75
2018-09-20T13:52:29.069Z,5.30
2018-09-20T13:54:57.738Z,5.70
2018-09-20T13:57:26.409Z,5.60
2018-09-20T13:59:54.999Z,8.70
2018-09-20T14:02:23.472Z,5.50
2018-09-20T14:04:51.946Z,6.15
2018-09-20T14:07:20.409Z,6.08
2018-09-20T14:09:48.694Z,8.50
2018-09-20T14:12:17.001Z,5.92
2018-09-20T14:14:45.292Z,6.10
2018-09-20T14:17:13.732Z,5.60
2018-09-20T14:19:41.991Z,7.20
2018-09-20T14:22:10.285Z,5.87
2018-09-20T14:24:38.787Z,6.15
2018-09-20T14:27:07.468Z,6.20
2018-09-20T14:29:35.945Z,6.70
2018-09-20T14:32:04.623Z,5.90
2018-09-20T14:34:32.939Z,5.87
2018-09-20T14:37:01.606Z,5.70
2018-09-20T14:39:29.970Z,6.05
2018-09-20T14:41:58.535Z,6.03
2018-09-20T14:44:27.012Z,6.95
2018-09-20T14:46:55.393Z,5.42
2018-09-20T14:49:23.715Z,5.92
2018-09-20T14:51:52.110Z,6.30
2018-09-20T14:54:20.504Z,5.80
2018-09-20T14:56:49.114Z,5.80
2018-09-20T14:59:17.605Z,5.40
2018-09-20T15:01:46.217Z,6.33
2018-09-20T15:04:14.733Z,6.40
2018-09-20T15:06:43.231Z,6.45
2018-09-20T15:09:12.521Z,5.65
2018-09-20T15:11:40.824Z,8.10
2018-09-20T15:14:09.319Z,7.45
2018-09-20T15:16:37.828Z,7.53
2018-09-20T15:19:06.344Z,5.75
2018-09-20T15:21:35.158Z,8.40
2018-09-20T15:24:03.554Z,5.53
2018-09-20T15:26:31.954Z,6.40
2018-09-20T15:29:00.452Z,6.75
2018-09-20T15:31:29.058Z,7.97
2018-09-20T15:33:57.478Z,6.40
2018-09-20T15:36:25.976Z,6.10
2018-09-20T15:38:54.470Z,7.13
2018-09-20T15:41:22.756Z,5.62
2018-09-20T15:43:51.014Z,5.20
2018-09-20T15:46:19.242Z,5.80
2018-09-20T15:48:47.343Z,5.47
2018-09-20T15:51:16.016Z,5.65
2018-09-20T15:53:44.328Z,5.90
2018-09-20T15:56:12.930Z,5.92
2018-09-20T15:58:41.658Z,5.72
2018-09-20T16:01:11.022Z,5.87
2018-09-20T16:03:39.274Z,8.65
2018-09-20T16:06:07.699Z,6.30
2018-09-20T16:08:35.957Z,5.75
2018-09-20T16:11:04.663Z,7.08
2018-09-20T16:13:32.973Z,5.42
2018-09-20T16:16:01.387Z,6.33
2018-09-20T16:18:29.655Z,5.95
2018-09-20T16:20:57.851Z,7.33
2018-09-20T16:23:26.124Z,6.50
2018-09-20T16:25:54.457Z,5.80
2018-09-20T16:29:35.129Z,12.70
2018-09-20T16:33:32.837Z,6.92
2018-09-20T16:36:08.954Z,7.42
2018-09-20T16:38:48.942Z,6.67
2018-09-20T16:41:24.988Z,7.37
2018-09-20T16:43:53.556Z,10.03
2018-09-20T16:46:21.942Z,7.33
2018-09-20T16:48:50.343Z,6.95
2018-09-20T16:51:18.771Z,6.73
2018-09-20T16:53:47.043Z,6.70
2018-09-20T16:56:15.440Z,7.20
2018-09-20T16:58:48.173Z,7.45
2018-09-20T17:01:16.758Z,7.20
2018-09-20T17:03:45.581Z,9.70
2018-09-20T17:06:13.960Z,9.63
2018-09-20T17:08:42.459Z,7.45
2018-09-20T17:11:10.880Z,7.22
2018-09-20T17:13:39.061Z,8.95
2018-09-20T17:16:08.455Z,10.05
2018-09-20T17:18:36.995Z,8.78
2018-09-20T17:21:05.528Z,8.60
2018-09-20T17:23:33.863Z,11.60
2018-09-20T17:26:02.253Z,9.95
2018-09-20T17:28:30.949Z,8.90
2018-09-20T17:30:59.189Z,8.53
2018-09-20T17:33:27.795Z,8.80
2018-09-20T17:35:56.422Z,14.40
2018-09-20T17:38:25.830Z,12.85
2018-09-20T17:40:58.559Z,13.95
2018-09-20T17:43:33.864Z,14.33
2018-09-20T17:46:02.267Z,19.30
2018-09-20T17:48:30.551Z,17.10
2018-09-20T17:50:59.520Z,13.32
2018-09-20T17:53:28.647Z,16.05
2018-09-20T17:55:58.021Z,14.98
2018-09-20T17:58:26.843Z,14.78
2018-09-20T18:00:55.535Z,12.15
2018-09-20T18:03:24.039Z,13.95
2018-09-20T18:05:52.337Z,11.05
2018-09-20T18:08:20.724Z,14.55
2018-09-20T18:10:49.535Z,13.22
2018-09-20T18:13:17.829Z,12.78
2018-09-20T18:15:46.232Z,10.33
2018-09-20T18:18:15.382Z,9.65
2018-09-20T18:20:43.653Z,8.65
2018-09-20T18:23:12.561Z,9.18
2018-09-20T18:25:40.822Z,10.80
2018-09-20T18:28:09.864Z,10.77
2018-09-20T18:30:38.578Z,9.83
2018-09-20T18:33:07.192Z,11.57
2018-09-20T18:35:35.787Z,9.80
2018-09-20T18:38:04.278Z,9.30
2018-09-20T18:40:32.733Z,9.78
2018-09-20T18:44:13.811Z,9.10
2018-09-20T18:46:42.188Z,10.15
2018-09-20T18:49:10.578Z,9.83
2018-09-20T18:51:39.206Z,10.40
2018-09-20T18:54:07.489Z,9.70
2018-09-20T18:56:35.833Z,9.57
2018-09-20T18:59:04.209Z,9.30
2018-09-20T19:01:32.593Z,9.80
2018-09-20T19:04:01.204Z,9.60
2018-09-20T19:06:29.723Z,9.88
2018-09-20T19:08:57.877Z,9.33
2018-09-20T19:11:25.964Z,9.20
2018-09-20T19:13:54.376Z,9.50
2018-09-20T19:16:22.807Z,9.98
2018-09-20T19:18:51.257Z,9.48
2018-09-20T19:21:19.819Z,9.10
2018-09-20T19:23:48.165Z,11.75
2018-09-20T19:26:20.154Z,9.50
2018-09-20T19:28:48.363Z,9.10
2018-09-20T19:31:16.939Z,9.53
2018-09-20T19:33:45.580Z,9.25
2018-09-20T19:36:13.965Z,9.70
2018-09-20T19:38:42.590Z,9.33
2018-09-20T19:41:12.706Z,9.15
2018-09-20T19:43:41.011Z,9.05
2018-09-20T19:46:09.528Z,9.20
2018-09-20T19:48:38.123Z,9.38
2018-09-20T19:51:06.524Z,9.88
2018-09-20T19:53:35.975Z,10.03
2018-09-20T19:56:04.531Z,10.93
2018-09-20T19:58:33.165Z,11.12
2018-09-20T20:01:01.861Z,12.90
2018-09-20T20:03:30.474Z,12.37
2018-09-20T20:05:58.947Z,12.00
2018-09-20T20:08:27.346Z,10.60
2018-09-20T20:10:56.297Z,10.60
2018-09-20T20:13:25.084Z,10.70
2018-09-20T20:15:53.970Z,10.88
2018-09-20T20:18:22.355Z,11.07
2018-09-20T20:20:50.775Z,10.85
2018-09-20T20:23:19.171Z,13.08
2018-09-20T20:25:47.674Z,18.15
2018-09-20T20:28:16.100Z,19.30
2018-09-20T20:30:44.397Z,17.70
2018-09-20T20:33:13.312Z,16.00
2018-09-20T20:35:41.910Z,16.35
2018-09-20T20:38:10.230Z,12.53
2018-09-20T20:40:38.616Z,12.70
2018-09-20T20:43:07.115Z,11.20
2018-09-20T20:45:36.187Z,14.70
2018-09-20T20:48:04.606Z,14.93
2018-09-20T20:50:33.117Z,13.93
2018-09-20T20:53:02.071Z,15.58
2018-09-20T20:55:30.455Z,17.12
2018-09-20T20:57:58.812Z,21.75
2018-09-20T21:00:27.445Z,18.67
2018-09-20T21:02:55.723Z,20.70
2018-09-20T21:05:24.120Z,13.70
2018-09-20T21:07:52.556Z,20.37
2018-09-20T21:10:21.170Z,17.27
2018-09-20T21:12:49.726Z,15.65
2018-09-20T21:15:18.148Z,15.18
2018-09-20T21:17:46.235Z,12.73
2018-09-20T21:20:14.525Z,12.68
2018-09-20T21:22:42.949Z,11.00
2018-09-20T21:25:11.252Z,9.88
2018-09-20T21:27:39.640Z,10.25
2018-09-20T21:30:08.028Z,9.83
2018-09-20T21:32:36.333Z,9.70
2018-09-20T21:35:04.729Z,9.63
2018-09-20T21:37:33.018Z,9.25
2018-09-20T21:40:01.285Z,9.70
2018-09-20T21:42:29.712Z,9.60
2018-09-20T21:44:57.997Z,9.00
2018-09-20T21:47:26.400Z,9.70
2018-09-20T21:49:54.913Z,8.68
2018-09-20T21:52:23.410Z,9.90
2018-09-20T21:54:51.703Z,9.20
2018-09-20T21:57:20.338Z,10.47
2018-09-20T21:59:48.834Z,8.90
2018-09-20T22:02:22.613Z,9.10
2018-09-20T22:04:51.134Z,8.70
2018-09-20T22:07:20.073Z,8.93
2018-09-20T22:09:48.684Z,9.35
2018-09-20T22:12:16.955Z,8.65
2018-09-20T22:14:45.367Z,9.00
2018-09-20T22:17:13.868Z,9.38
2018-09-20T22:19:42.146Z,9.00
2018-09-20T22:22:10.223Z,9.25
2018-09-20T22:24:38.432Z,9.43
2018-09-20T22:27:06.833Z,9.33
2018-09-20T22:29:35.209Z,9.40
2018-09-20T22:32:03.549Z,8.68
2018-09-20T22:34:31.934Z,9.57
2018-09-20T22:37:00.233Z,9.00
2018-09-20T22:39:28.651Z,9.30
2018-09-20T22:41:56.935Z,9.30
2018-09-20T22:44:25.374Z,9.40
2018-09-20T22:46:53.636Z,9.10
2018-09-20T22:49:22.044Z,9.40
2018-09-20T22:51:50.424Z,9.50
2018-09-20T22:54:18.828Z,10.30
2018-09-20T22:56:47.242Z,9.20
2018-09-20T22:59:15.424Z,9.95
2018-09-20T23:01:43.732Z,9.55
2018-09-20T23:04:12.131Z,10.88
2018-09-20T23:06:40.519Z,9.88
2018-09-20T23:09:10.023Z,10.50
2018-09-20T23:11:38.790Z,10.80
2018-09-20T23:14:07.295Z,9.98
2018-09-20T23:16:35.664Z,9.50
2018-09-20T23:19:03.923Z,9.55
2018-09-20T23:21:32.240Z,9.83
2018-09-20T23:24:00.860Z,9.10
2018-09-20T23:26:29.244Z,9.53
2018-09-20T23:28:57.615Z,9.55
2018-09-20T23:31:25.974Z,9.80
2018-09-20T23:33:54.185Z,9.93
2018-09-20T23:36:22.239Z,9.03
2018-09-20T23:38:51.183Z,9.75
2018-09-20T23:41:19.764Z,9.60
2018-09-20T23:43:48.028Z,10.05
2018-09-20T23:46:16.488Z,10.40
2018-09-20T23:48:44.751Z,9.50
2018-09-20T23:51:13.163Z,9.43
2018-09-20T23:53:42.133Z,9.80
2018-09-20T23:56:10.329Z,9.78
2018-09-20T23:58:38.866Z,9.70
